createdAt,value
2023-12-29T00:00:35.362Z,1089.00
2023-12-29T00:01:35.553Z,1101.00
2023-12-29T00:02:35.435Z,1093.00
2023-12-29T00:03:35.525Z,1106.00
2023-12-29T00:04:35.531Z,1099.00
2023-12-29T00:05:35.602Z,1087.00
2023-12-29T00:06:40.461Z,1088.00
2023-12-29T00:07:36.697Z,1089.00
2023-12-29T00:08:35.611Z,1090.00
2023-12-29T00:09:35.618Z,1089.00
2023-12-29T00:10:35.592Z,1092.00
2023-12-29T00:11:35.601Z,1101.00
2023-12-29T00:12:35.579Z,1098.00
2023-12-29T00:13:35.574Z,1100.00
2023-12-29T00:14:35.552Z,1097.00
2023-12-29T00:15:35.582Z,1098.00
2023-12-29T00:16:35.542Z,1095.00
2023-12-29T00:17:35.571Z,1104.00
2023-12-29T00:18:35.680Z,1086.00
2023-12-29T00:19:35.620Z,1093.00
2023-12-29T00:20:41.317Z,1098.00
2023-12-29T00:21:36.528Z,1099.00
2023-12-29T00:22:35.478Z,1098.00
2023-12-29T00:23:35.477Z,1100.00
2023-12-29T00:24:35.575Z,1100.00
2023-12-29T00:25:35.452Z,1097.00
2023-12-29T00:26:35.447Z,1109.00
2023-12-29T00:27:35.444Z,1092.00
2023-12-29T00:28:35.427Z,1095.00
2023-12-29T00:30:47.746Z,1094.00
2023-12-29T00:31:36.459Z,1095.00
2023-12-29T00:32:35.484Z,1096.00
2023-12-29T00:33:35.545Z,1099.00
2023-12-29T00:34:35.566Z,1100.00
2023-12-29T00:35:35.358Z,1097.00
2023-12-29T00:36:45.473Z,1094.00
2023-12-29T00:37:35.378Z,1095.00
2023-12-29T00:38:35.332Z,1095.00
2023-12-29T00:39:35.332Z,1099.00
2023-12-29T00:40:35.304Z,1098.00
2023-12-29T00:41:35.348Z,1101.00
2023-12-29T00:42:35.408Z,1095.00
2023-12-29T00:43:35.300Z,1102.00
2023-12-29T00:44:35.270Z,1092.00
2023-12-29T00:45:35.269Z,1090.00
2023-12-29T00:46:45.338Z,1107.00
2023-12-29T00:47:35.362Z,1107.00
2023-12-29T00:48:35.330Z,1107.00
2023-12-29T00:49:35.311Z,1108.00
2023-12-29T00:50:35.241Z,1096.00
2023-12-29T00:51:35.284Z,1104.00
2023-12-29T00:52:35.222Z,1102.00
2023-12-29T00:53:35.185Z,1104.00
2023-12-29T00:54:35.246Z,1096.00
2023-12-29T00:55:35.234Z,1091.00
2023-12-29T00:56:35.162Z,1096.00
2023-12-29T00:57:35.189Z,1106.00
2023-12-29T00:58:35.149Z,1102.00
2023-12-29T00:59:35.115Z,1104.00
2023-12-29T01:00:35.206Z,1101.00
2023-12-29T01:01:35.146Z,1105.00
2023-12-29T01:02:35.105Z,1100.00
2023-12-29T01:03:35.107Z,1098.00
2023-12-29T01:04:35.220Z,1107.00
2023-12-29T01:05:35.092Z,1104.00
2023-12-29T01:06:35.086Z,1104.00
2023-12-29T01:07:35.065Z,1098.00
2023-12-29T01:08:35.053Z,1094.00
2023-12-29T01:09:35.055Z,1100.00
2023-12-29T01:10:35.105Z,1095.00
2023-12-29T01:11:35.000Z,1101.00
2023-12-29T01:12:35.034Z,1101.00
2023-12-29T01:13:34.996Z,1102.00
2023-12-29T01:14:35.004Z,1104.00
2023-12-29T01:15:35.013Z,1115.00
2023-12-29T01:16:34.957Z,1084.00
2023-12-29T01:17:35.023Z,1102.00
2023-12-29T01:18:35.016Z,1107.00
2023-12-29T01:19:35.038Z,1097.00
2023-12-29T01:20:34.921Z,1095.00
2023-12-29T01:21:35.221Z,1099.00
2023-12-29T01:22:34.910Z,1106.00
2023-12-29T01:23:34.888Z,1102.00
2023-12-29T01:24:42.772Z,1097.00
2023-12-29T01:25:35.982Z,1097.00
2023-12-29T01:26:34.872Z,1088.00
2023-12-29T01:27:34.978Z,1098.00
2023-12-29T01:28:34.874Z,1094.00
2023-12-29T01:29:35.196Z,1108.00
2023-12-29T01:30:34.938Z,1102.00
2023-12-29T01:31:34.823Z,1096.00
2023-12-29T01:32:34.871Z,1100.00
2023-12-29T01:33:34.884Z,1094.00
2023-12-29T01:34:34.859Z,1109.00
2023-12-29T01:35:34.777Z,1102.00
2023-12-29T01:36:34.809Z,1099.00
2023-12-29T01:37:34.763Z,1098.00
2023-12-29T01:38:34.747Z,1104.00
2023-12-29T01:39:34.785Z,1096.00
2023-12-29T01:40:34.731Z,1108.00
2023-12-29T01:41:34.728Z,1095.00
2023-12-29T01:42:34.729Z,1097.00
2023-12-29T01:43:34.706Z,1102.00
2023-12-29T01:44:34.709Z,1099.00
2023-12-29T01:45:40.382Z,1105.00
2023-12-29T01:46:35.756Z,1100.00
2023-12-29T01:47:34.717Z,1101.00
2023-12-29T01:48:34.728Z,1107.00
2023-12-29T01:49:34.763Z,1109.00
2023-12-29T01:50:34.635Z,1094.00
2023-12-29T01:51:34.680Z,1103.00
2023-12-29T01:52:34.621Z,1106.00
2023-12-29T01:53:39.808Z,1099.00
2023-12-29T01:54:35.773Z,1100.00
2023-12-29T01:55:34.581Z,1101.00
2023-12-29T01:56:34.590Z,1101.00
2023-12-29T01:57:34.685Z,1105.00
2023-12-29T01:58:34.571Z,1105.00
2023-12-29T01:59:34.558Z,1101.00
2023-12-29T02:00:34.663Z,1104.00
2023-12-29T02:01:34.593Z,1108.00
2023-12-29T02:02:34.526Z,1113.00
2023-12-29T02:03:34.580Z,1106.00
2023-12-29T02:04:34.739Z,1100.00
2023-12-29T02:05:34.523Z,1097.00
2023-12-29T02:06:34.543Z,1110.00
2023-12-29T02:07:34.473Z,1101.00
2023-12-29T02:08:34.482Z,1105.00
2023-12-29T02:09:34.497Z,1105.00
2023-12-29T02:10:34.469Z,1107.00
2023-12-29T02:11:34.437Z,1110.00
2023-12-29T02:12:34.482Z,1104.00
2023-12-29T02:13:34.425Z,1106.00
2023-12-29T02:14:34.411Z,1104.00
2023-12-29T02:15:34.423Z,1112.00
2023-12-29T02:16:34.390Z,1092.00
2023-12-29T02:17:34.431Z,1104.00
2023-12-29T02:18:34.451Z,1095.00
2023-12-29T02:19:34.470Z,1106.00
2023-12-29T02:20:34.347Z,1102.00
2023-12-29T02:21:34.400Z,1111.00
2023-12-29T02:22:34.338Z,1104.00
2023-12-29T02:23:34.317Z,1102.00
2023-12-29T02:24:34.401Z,1109.00
2023-12-29T02:25:34.292Z,1093.00
2023-12-29T02:26:34.296Z,1102.00
2023-12-29T02:27:34.327Z,1102.00
2023-12-29T02:28:34.277Z,1103.00
2023-12-29T02:29:34.252Z,1094.00
2023-12-29T02:30:34.368Z,1099.00
2023-12-29T02:31:34.306Z,1097.00
2023-12-29T02:32:34.305Z,1098.00
2023-12-29T02:33:34.408Z,1101.00
2023-12-29T02:34:34.516Z,1108.00
2023-12-29T02:35:34.197Z,1105.00
2023-12-29T02:36:34.215Z,1109.00
2023-12-29T02:37:34.199Z,1092.00
2023-12-29T02:38:34.179Z,1102.00
2023-12-29T02:39:34.165Z,1098.00
2023-12-29T02:40:34.185Z,1104.00
2023-12-29T02:41:34.180Z,1102.00
2023-12-29T02:42:34.150Z,1093.00
2023-12-29T02:43:34.128Z,1100.00
2023-12-29T02:44:34.138Z,1097.00
2023-12-29T02:45:34.125Z,1096.00
2023-12-29T02:46:34.098Z,1102.00
2023-12-29T02:47:34.100Z,1100.00
2023-12-29T02:48:34.218Z,1104.00
2023-12-29T02:49:34.127Z,1112.00
2023-12-29T02:50:34.081Z,1108.00
2023-12-29T02:51:34.068Z,1105.00
2023-12-29T02:52:34.059Z,1098.00
2023-12-29T02:53:34.103Z,1098.00
2023-12-29T02:54:34.070Z,1111.00
2023-12-29T02:55:34.023Z,1093.00
2023-12-29T02:56:34.022Z,1113.00
2023-12-29T02:57:34.033Z,1106.00
2023-12-29T02:58:33.998Z,1108.00
2023-12-29T02:59:34.053Z,1103.00
2023-12-29T03:00:34.075Z,1101.00
2023-12-29T03:01:34.005Z,1117.00
2023-12-29T03:02:33.954Z,1104.00
2023-12-29T03:03:34.088Z,1109.00
2023-12-29T03:04:33.939Z,1104.00
2023-12-29T03:05:34.009Z,1092.00
2023-12-29T03:06:33.941Z,1115.00
2023-12-29T03:07:33.918Z,1110.00
2023-12-29T03:08:33.901Z,1107.00
2023-12-29T03:09:33.931Z,1110.00
2023-12-29T03:10:33.890Z,1096.00
2023-12-29T03:11:33.910Z,1103.00
2023-12-29T03:12:38.892Z,1106.00
2023-12-29T03:13:33.856Z,1106.00
2023-12-29T03:14:33.863Z,1108.00
2023-12-29T03:15:33.894Z,1104.00
2023-12-29T03:16:33.825Z,1105.00
2023-12-29T03:17:33.876Z,1098.00
2023-12-29T03:18:33.863Z,1105.00
2023-12-29T03:19:33.894Z,1104.00
2023-12-29T03:20:33.792Z,1109.00
2023-12-29T03:21:33.793Z,1104.00
2023-12-29T03:22:33.797Z,1111.00
2023-12-29T03:23:33.745Z,1112.00
2023-12-29T03:24:33.779Z,1107.00
2023-12-29T03:25:33.734Z,1116.00
2023-12-29T03:26:33.729Z,1109.00
2023-12-29T03:27:33.724Z,1103.00
2023-12-29T03:28:33.706Z,1105.00
2023-12-29T03:29:33.722Z,1105.00
2023-12-29T03:30:33.758Z,1101.00
2023-12-29T03:31:33.834Z,1108.00
2023-12-29T03:32:33.679Z,1118.00
2023-12-29T03:33:33.717Z,1100.00
2023-12-29T03:34:33.732Z,1108.00
2023-12-29T03:35:33.625Z,1101.00
2023-12-29T03:36:33.685Z,1101.00
2023-12-29T03:37:33.636Z,1113.00
2023-12-29T03:38:38.657Z,1101.00
2023-12-29T03:39:33.603Z,1102.00
2023-12-29T03:40:33.588Z,1103.00
2023-12-29T03:41:33.596Z,1105.00
2023-12-29T03:42:33.673Z,1109.00
2023-12-29T03:43:33.560Z,1115.00
2023-12-29T03:44:33.571Z,1111.00
2023-12-29T03:45:33.571Z,1110.00
2023-12-29T03:46:33.539Z,1104.00
2023-12-29T03:47:33.523Z,1102.00
2023-12-29T03:48:33.598Z,1111.00
2023-12-29T03:49:33.603Z,1115.00
2023-12-29T03:50:33.541Z,1110.00
2023-12-29T03:51:33.501Z,1106.00
2023-12-29T03:52:33.532Z,1102.00
2023-12-29T03:53:33.548Z,1108.00
2023-12-29T03:54:33.663Z,1107.00
2023-12-29T03:55:33.648Z,1111.00
2023-12-29T03:56:33.710Z,1113.00
2023-12-29T03:57:33.768Z,1108.00
2023-12-29T03:58:33.802Z,1103.00
2023-12-29T03:59:33.859Z,1115.00
2023-12-29T04:00:34.028Z,1108.00
2023-12-29T04:01:34.015Z,1117.00
2023-12-29T04:02:39.018Z,1113.00
2023-12-29T04:03:34.079Z,1113.00
2023-12-29T04:04:34.099Z,1111.00
2023-12-29T04:05:33.991Z,1107.00
2023-12-29T04:06:33.974Z,1104.00
2023-12-29T04:07:33.940Z,1115.00
2023-12-29T04:08:33.939Z,1112.00
2023-12-29T04:09:33.989Z,1110.00
2023-12-29T04:10:33.937Z,1105.00
2023-12-29T04:11:33.930Z,1115.00
2023-12-29T04:12:33.942Z,1104.00
2023-12-29T04:13:33.927Z,1111.00
2023-12-29T04:14:33.880Z,1109.00
2023-12-29T04:15:33.947Z,1103.00
2023-12-29T04:16:33.885Z,1103.00
2023-12-29T04:17:33.994Z,1102.00
2023-12-29T04:18:33.983Z,1111.00
2023-12-29T04:19:33.965Z,1100.00
2023-12-29T04:20:33.830Z,1114.00
2023-12-29T04:21:33.858Z,1111.00
2023-12-29T04:22:33.818Z,1105.00
2023-12-29T04:23:33.796Z,1109.00
2023-12-29T04:24:33.812Z,1117.00
2023-12-29T04:25:33.773Z,1112.00
2023-12-29T04:26:33.765Z,1102.00
2023-12-29T04:27:33.817Z,1113.00
2023-12-29T04:28:33.747Z,1112.00
2023-12-29T04:29:33.782Z,1107.00
2023-12-29T04:30:33.818Z,1111.00
2023-12-29T04:31:33.749Z,1109.00
2023-12-29T04:32:33.738Z,1103.00
2023-12-29T04:33:33.770Z,1116.00
2023-12-29T04:34:33.827Z,1106.00
2023-12-29T04:35:33.686Z,1105.00
2023-12-29T04:36:33.699Z,1115.00
2023-12-29T04:37:33.660Z,1108.00
2023-12-29T04:38:33.676Z,1110.00
2023-12-29T04:39:33.686Z,1111.00
2023-12-29T04:40:33.655Z,1106.00
2023-12-29T04:41:33.622Z,1111.00
2023-12-29T04:42:33.678Z,1106.00
2023-12-29T04:43:33.602Z,1101.00
2023-12-29T04:44:33.639Z,1097.00
2023-12-29T04:45:33.605Z,1114.00
2023-12-29T04:46:33.589Z,1112.00
2023-12-29T04:47:33.587Z,1111.00
2023-12-29T04:48:33.629Z,1111.00
2023-12-29T04:49:33.725Z,1106.00
2023-12-29T04:50:33.569Z,1119.00
2023-12-29T04:51:33.584Z,1116.00
2023-12-29T04:52:33.526Z,1123.00
2023-12-29T04:53:33.512Z,1115.00
2023-12-29T04:54:33.570Z,1116.00
2023-12-29T04:55:33.593Z,1108.00
2023-12-29T04:56:33.505Z,1114.00
2023-12-29T04:57:33.483Z,1109.00
2023-12-29T04:58:33.474Z,1115.00
2023-12-29T04:59:33.475Z,1111.00
2023-12-29T05:00:33.592Z,1122.00
2023-12-29T05:01:33.518Z,1109.00
2023-12-29T05:02:33.419Z,1114.00
2023-12-29T05:03:33.452Z,1109.00
2023-12-29T05:04:33.486Z,1115.00
2023-12-29T05:05:33.493Z,1116.00
2023-12-29T05:06:33.418Z,1114.00
2023-12-29T05:07:33.389Z,1109.00
2023-12-29T05:08:33.363Z,1106.00
2023-12-29T05:09:33.376Z,1116.00
2023-12-29T05:10:33.351Z,1114.00
2023-12-29T05:11:33.343Z,1115.00
2023-12-29T05:12:33.402Z,1110.00
2023-12-29T05:13:33.325Z,1108.00
2023-12-29T05:14:33.315Z,1110.00
2023-12-29T05:15:33.331Z,1107.00
2023-12-29T05:16:33.297Z,1111.00
2023-12-29T05:17:33.382Z,1100.00
2023-12-29T05:18:33.544Z,1115.00
2023-12-29T05:19:33.366Z,1113.00
2023-12-29T05:20:33.252Z,1113.00
2023-12-29T05:21:33.311Z,1111.00
2023-12-29T05:22:38.257Z,1109.00
2023-12-29T05:23:33.232Z,1109.00
2023-12-29T05:24:33.266Z,1109.00
2023-12-29T05:25:33.215Z,1111.00
2023-12-29T05:26:33.204Z,1110.00
2023-12-29T05:27:43.283Z,1112.00
2023-12-29T05:28:33.173Z,1109.00
2023-12-29T05:29:33.183Z,1110.00
2023-12-29T05:30:33.247Z,1111.00
2023-12-29T05:31:33.162Z,1113.00
2023-12-29T05:32:33.238Z,1108.00
2023-12-29T05:33:33.296Z,1124.00
2023-12-29T05:34:33.209Z,1122.00
2023-12-29T05:35:33.107Z,1114.00
2023-12-29T05:36:33.121Z,1118.00
2023-12-29T05:37:33.096Z,1117.00
2023-12-29T05:38:33.074Z,1119.00
2023-12-29T05:39:33.140Z,1115.00
2023-12-29T05:40:33.080Z,1119.00
2023-12-29T05:41:33.062Z,1118.00
2023-12-29T05:42:33.088Z,1116.00
2023-12-29T05:43:33.038Z,1111.00
2023-12-29T05:44:33.029Z,1111.00
2023-12-29T05:45:33.039Z,1120.00
2023-12-29T05:46:33.017Z,1111.00
2023-12-29T05:47:33.048Z,1117.00
2023-12-29T05:48:33.081Z,1119.00
2023-12-29T05:49:33.098Z,1114.00
2023-12-29T05:50:32.985Z,1113.00
2023-12-29T05:51:33.008Z,1119.00
2023-12-29T05:52:32.964Z,1114.00
2023-12-29T05:53:32.953Z,1111.00
2023-12-29T05:54:32.960Z,1121.00
2023-12-29T05:55:32.934Z,1120.00
2023-12-29T05:56:32.911Z,1116.00
2023-12-29T05:57:32.932Z,1119.00
2023-12-29T05:58:32.892Z,1115.00
2023-12-29T05:59:32.897Z,1113.00
2023-12-29T06:00:32.940Z,1116.00
2023-12-29T06:01:32.968Z,1109.00
2023-12-29T06:02:32.858Z,1117.00
2023-12-29T06:03:33.028Z,1118.00
2023-12-29T06:04:32.833Z,1118.00
2023-12-29T06:05:32.861Z,1118.00
2023-12-29T06:06:32.864Z,1112.00
2023-12-29T06:07:32.813Z,1112.00
2023-12-29T06:08:32.792Z,1119.00
2023-12-29T06:09:32.831Z,1121.00
2023-12-29T06:10:32.776Z,1115.00
2023-12-29T06:11:32.771Z,1116.00
2023-12-29T06:12:32.829Z,1131.00
2023-12-29T06:13:32.749Z,1120.00
2023-12-29T06:14:32.754Z,1116.00
2023-12-29T06:15:32.770Z,1123.00
2023-12-29T06:16:32.721Z,1123.00
2023-12-29T06:17:42.884Z,1116.00
2023-12-29T06:18:32.879Z,1116.00
2023-12-29T06:19:32.755Z,1117.00
2023-12-29T06:20:32.685Z,1117.00
2023-12-29T06:21:32.728Z,1121.00
2023-12-29T06:22:37.682Z,1127.00
2023-12-29T06:23:32.681Z,1116.00
2023-12-29T06:24:32.667Z,1117.00
2023-12-29T06:25:32.915Z,1120.00
2023-12-29T06:26:32.640Z,1128.00
2023-12-29T06:27:37.668Z,1117.00
2023-12-29T06:28:32.605Z,1116.00
2023-12-29T06:29:32.616Z,1118.00
2023-12-29T06:30:32.611Z,1120.00
2023-12-29T06:31:32.650Z,1117.00
2023-12-29T06:32:37.643Z,1124.00
2023-12-29T06:33:32.612Z,1116.00
2023-12-29T06:34:32.651Z,1117.00
2023-12-29T06:35:32.548Z,1120.00
2023-12-29T06:36:32.541Z,1117.00
2023-12-29T06:37:37.549Z,1121.00
2023-12-29T06:38:32.523Z,1116.00
2023-12-29T06:39:32.531Z,1117.00
2023-12-29T06:40:32.489Z,1117.00
2023-12-29T06:41:32.489Z,1122.00
2023-12-29T06:42:32.513Z,1119.00
2023-12-29T06:43:32.476Z,1123.00
2023-12-29T06:44:32.464Z,1123.00
2023-12-29T06:45:32.456Z,1124.00
2023-12-29T06:46:32.438Z,1124.00
2023-12-29T06:47:32.524Z,1121.00
2023-12-29T06:48:32.569Z,1121.00
2023-12-29T06:49:32.446Z,1124.00
2023-12-29T06:50:32.413Z,1119.00
2023-12-29T06:51:32.452Z,1120.00
2023-12-29T06:52:37.414Z,1121.00
2023-12-29T06:53:32.377Z,1121.00
2023-12-29T06:54:32.386Z,1121.00
2023-12-29T06:55:32.357Z,1123.00
2023-12-29T06:56:32.333Z,1114.00
2023-12-29T06:57:32.388Z,1122.00
2023-12-29T06:58:32.320Z,1122.00
2023-12-29T06:59:32.321Z,1124.00
2023-12-29T07:00:32.381Z,1114.00
2023-12-29T07:01:32.333Z,1121.00
2023-12-29T07:02:32.288Z,1123.00
2023-12-29T07:03:32.438Z,1119.00
2023-12-29T07:04:32.280Z,1117.00
2023-12-29T07:05:32.355Z,1118.00
2023-12-29T07:06:32.494Z,1124.00
2023-12-29T07:07:32.469Z,1126.00
2023-12-29T07:08:32.494Z,1121.00
2023-12-29T07:09:32.557Z,1121.00
2023-12-29T07:10:32.569Z,1121.00
2023-12-29T07:11:32.645Z,1120.00
2023-12-29T07:12:32.741Z,1118.00
2023-12-29T07:13:32.727Z,1132.00
2023-12-29T07:14:32.780Z,1123.00
2023-12-29T07:15:32.910Z,1127.00
2023-12-29T07:16:32.868Z,1123.00
2023-12-29T07:17:33.050Z,1122.00
2023-12-29T07:18:33.125Z,1127.00
2023-12-29T07:19:33.043Z,1121.00
2023-12-29T07:20:33.069Z,1122.00
2023-12-29T07:21:33.131Z,1114.00
2023-12-29T07:22:38.175Z,1126.00
2023-12-29T07:23:33.156Z,1126.00
2023-12-29T07:24:33.176Z,1122.00
2023-12-29T07:25:33.154Z,1126.00
2023-12-29T07:26:35.069Z,1126.00
2023-12-29T07:27:33.323Z,1124.00
2023-12-29T07:28:33.275Z,1120.00
2023-12-29T07:29:33.277Z,1118.00
2023-12-29T07:30:33.314Z,1121.00
2023-12-29T07:31:33.282Z,1121.00
2023-12-29T07:32:43.288Z,1124.00
2023-12-29T07:33:33.458Z,1125.00
2023-12-29T07:34:33.395Z,1121.00
2023-12-29T07:35:33.395Z,1127.00
2023-12-29T07:36:33.223Z,1125.00
2023-12-29T07:37:33.200Z,1127.00
2023-12-29T07:38:33.181Z,1128.00
2023-12-29T07:39:33.227Z,1114.00
2023-12-29T07:40:33.190Z,1117.00
2023-12-29T07:41:33.149Z,1123.00
2023-12-29T07:42:33.168Z,1130.00
2023-12-29T07:43:33.150Z,1114.00
2023-12-29T07:44:33.119Z,1121.00
2023-12-29T07:45:33.168Z,1122.00
2023-12-29T07:46:33.096Z,1114.00
2023-12-29T07:47:33.196Z,1118.00
2023-12-29T07:48:33.207Z,1125.00
2023-12-29T07:49:33.175Z,1122.00
2023-12-29T07:50:33.054Z,1119.00
2023-12-29T07:51:33.078Z,1117.00
2023-12-29T07:52:33.028Z,1115.00
2023-12-29T07:53:33.033Z,1119.00
2023-12-29T07:54:33.124Z,1119.00
2023-12-29T07:55:33.015Z,1115.00
2023-12-29T07:56:32.991Z,1124.00
2023-12-29T07:57:33.040Z,1116.00
2023-12-29T07:58:32.978Z,1116.00
2023-12-29T07:59:32.980Z,1125.00
2023-12-29T08:00:33.053Z,1114.00
2023-12-29T08:01:33.082Z,1122.00
2023-12-29T08:02:37.937Z,1108.00
2023-12-29T08:03:32.955Z,1108.00
2023-12-29T08:04:32.933Z,1111.00
2023-12-29T08:05:32.937Z,1114.00
2023-12-29T08:06:32.908Z,1116.00
2023-12-29T08:07:32.896Z,1119.00
2023-12-29T08:08:32.914Z,1122.00
2023-12-29T08:09:32.872Z,1121.00
2023-12-29T08:10:32.891Z,1121.00
2023-12-29T08:11:32.850Z,1122.00
2023-12-29T08:12:37.891Z,1117.00
2023-12-29T08:13:32.837Z,1117.00
2023-12-29T08:14:32.829Z,1116.00
2023-12-29T08:15:32.825Z,1118.00
2023-12-29T08:16:32.809Z,1119.00
2023-12-29T08:17:32.844Z,1117.00
2023-12-29T08:18:32.857Z,1112.00
2023-12-29T08:19:32.880Z,1117.00
2023-12-29T08:20:32.777Z,1112.00
2023-12-29T08:21:32.772Z,1108.00
2023-12-29T08:22:32.747Z,1114.00
2023-12-29T08:23:32.824Z,1118.00
2023-12-29T08:24:32.726Z,1115.00
2023-12-29T08:25:32.746Z,1112.00
2023-12-29T08:26:32.704Z,1114.00
2023-12-29T08:27:32.717Z,1118.00
2023-12-29T08:28:32.704Z,1117.00
2023-12-29T08:29:32.686Z,1113.00
2023-12-29T08:30:32.671Z,1110.00
2023-12-29T08:31:32.707Z,1104.00
2023-12-29T08:32:32.664Z,1109.00
2023-12-29T08:33:32.703Z,1118.00
2023-12-29T08:34:32.725Z,1106.00
2023-12-29T08:35:32.629Z,1109.00
2023-12-29T08:36:32.616Z,1107.00
2023-12-29T08:37:32.639Z,1119.00
2023-12-29T08:38:32.611Z,1106.00
2023-12-29T08:39:32.588Z,1111.00
2023-12-29T08:40:32.641Z,1106.00
2023-12-29T08:41:32.566Z,1116.00
2023-12-29T08:42:32.568Z,1109.00
2023-12-29T08:43:32.567Z,1108.00
2023-12-29T08:44:32.534Z,1106.00
2023-12-29T08:45:32.529Z,1091.00
2023-12-29T08:46:32.520Z,1096.00
2023-12-29T08:47:32.569Z,1096.00
2023-12-29T08:48:32.528Z,1092.00
2023-12-29T08:49:32.630Z,1096.00
2023-12-29T08:50:32.475Z,1112.00
2023-12-29T08:51:32.485Z,1109.00
2023-12-29T08:52:32.459Z,1110.00
2023-12-29T08:53:32.459Z,1108.00
2023-12-29T08:54:32.438Z,1101.00
2023-12-29T08:55:32.438Z,1091.00
2023-12-29T08:56:32.420Z,1093.00
2023-12-29T08:57:32.415Z,1081.00
2023-12-29T08:58:32.396Z,1083.00
2023-12-29T08:59:32.407Z,1079.00
2023-12-29T09:00:32.384Z,1091.00
2023-12-29T09:01:32.402Z,1074.00
2023-12-29T09:02:32.364Z,1084.00
2023-12-29T09:03:32.402Z,1081.00
2023-12-29T09:04:32.348Z,1084.00
2023-12-29T09:05:32.368Z,1079.00
2023-12-29T09:06:32.392Z,1070.00
2023-12-29T09:07:32.422Z,1069.00
2023-12-29T09:08:32.319Z,1075.00
2023-12-29T09:09:32.309Z,1077.00
2023-12-29T09:10:32.296Z,1085.00
2023-12-29T09:11:32.278Z,1088.00
2023-12-29T09:12:32.288Z,1081.00
2023-12-29T09:13:32.276Z,1087.00
2023-12-29T09:14:32.252Z,1087.00
2023-12-29T09:15:32.254Z,1088.00
2023-12-29T09:16:32.223Z,1090.00
2023-12-29T09:17:32.314Z,1086.00
2023-12-29T09:18:33.985Z,1082.00
2023-12-29T09:19:39.494Z,1077.00
2023-12-29T09:20:33.332Z,1078.00
2023-12-29T09:21:32.185Z,1079.00
2023-12-29T09:22:32.176Z,1081.00
2023-12-29T09:23:42.213Z,1076.00
2023-12-29T09:24:32.158Z,1078.00
2023-12-29T09:25:32.199Z,1080.00
2023-12-29T09:26:32.131Z,1084.00
2023-12-29T09:27:32.129Z,1092.00
2023-12-29T09:28:32.124Z,1104.00
2023-12-29T09:29:32.105Z,1098.00
2023-12-29T09:30:32.121Z,1092.00
2023-12-29T09:31:32.133Z,1104.00
2023-12-29T09:32:32.161Z,1097.00
2023-12-29T09:33:32.109Z,1104.00
2023-12-29T09:34:32.099Z,1105.00
2023-12-29T09:35:32.041Z,1100.00
2023-12-29T09:36:32.046Z,1109.00
2023-12-29T09:37:32.050Z,1105.00
2023-12-29T09:38:32.073Z,1106.00
2023-12-29T09:39:32.006Z,1113.00
2023-12-29T09:40:32.005Z,1108.00
2023-12-29T09:41:31.984Z,1104.00
2023-12-29T09:42:31.979Z,1102.00
2023-12-29T09:43:31.966Z,1101.00
2023-12-29T09:44:31.959Z,1104.00
2023-12-29T09:45:31.940Z,1108.00
2023-12-29T09:46:32.049Z,1113.00
2023-12-29T09:47:33.248Z,1103.00
2023-12-29T09:48:31.990Z,1105.00
2023-12-29T09:49:32.064Z,1102.00
2023-12-29T09:50:31.902Z,1105.00
2023-12-29T09:51:31.904Z,1111.00
2023-12-29T09:52:31.888Z,1104.00
2023-12-29T09:53:31.909Z,1103.00
2023-12-29T09:54:32.863Z,1103.00
2023-12-29T09:55:31.863Z,1104.00
2023-12-29T09:56:31.857Z,1105.00
2023-12-29T09:57:31.836Z,1117.00
2023-12-29T09:58:31.863Z,1105.00
2023-12-29T09:59:31.820Z,1106.00
2023-12-29T10:00:31.880Z,1101.00
2023-12-29T10:01:31.889Z,1105.00
2023-12-29T10:02:31.836Z,1104.00
2023-12-29T10:03:31.877Z,1105.00
2023-12-29T10:04:31.953Z,1107.00
2023-12-29T10:05:32.000Z,1114.00
2023-12-29T10:06:32.039Z,1104.00
2023-12-29T10:07:32.111Z,1104.00
2023-12-29T10:08:32.124Z,1090.00
2023-12-29T10:09:32.176Z,1088.00
2023-12-29T10:10:32.230Z,1091.00
2023-12-29T10:11:37.297Z,1085.00
2023-12-29T10:12:32.280Z,1086.00
2023-12-29T10:13:32.255Z,1080.00
2023-12-29T10:14:32.277Z,1084.00
2023-12-29T10:15:32.232Z,1084.00
2023-12-29T10:16:32.242Z,1085.00
2023-12-29T10:17:32.252Z,1082.00
2023-12-29T10:18:32.300Z,1080.00
2023-12-29T10:19:32.233Z,1073.00
2023-12-29T10:20:32.197Z,1080.00
2023-12-29T10:21:32.171Z,1070.00
2023-12-29T10:22:32.169Z,1077.00
2023-12-29T10:23:32.158Z,1077.00
2023-12-29T10:24:32.148Z,1079.00
2023-12-29T10:25:32.149Z,1089.00
2023-12-29T10:26:32.144Z,1079.00
2023-12-29T10:27:32.125Z,1076.00
2023-12-29T10:28:32.139Z,1084.00
2023-12-29T10:29:32.108Z,1080.00
2023-12-29T10:30:35.343Z,1079.00
2023-12-29T10:31:32.189Z,1091.00
2023-12-29T10:32:32.121Z,1088.00
2023-12-29T10:33:32.203Z,1085.00
2023-12-29T10:34:32.100Z,1087.00
2023-12-29T10:35:33.038Z,1091.00
2023-12-29T10:36:32.047Z,1101.00
2023-12-29T10:37:32.026Z,1114.00
2023-12-29T10:38:32.061Z,1168.00
2023-12-29T10:39:31.998Z,1196.00
2023-12-29T10:40:32.017Z,1213.00
2023-12-29T10:41:31.996Z,1224.00
2023-12-29T10:42:31.989Z,1227.00
2023-12-29T10:43:31.988Z,1211.00
2023-12-29T10:44:31.978Z,1198.00
2023-12-29T10:45:31.957Z,1189.00
2023-12-29T10:46:31.998Z,1180.00
2023-12-29T10:47:31.967Z,1158.00
2023-12-29T10:48:31.945Z,1147.00
2023-12-29T10:49:31.977Z,1141.00
2023-12-29T10:50:31.942Z,1137.00
2023-12-29T10:51:31.890Z,1133.00
2023-12-29T10:52:31.888Z,1125.00
2023-12-29T10:53:31.883Z,1128.00
2023-12-29T10:54:31.884Z,1109.00
2023-12-29T10:55:31.868Z,1090.00
2023-12-29T10:56:31.855Z,1084.00
2023-12-29T10:57:31.872Z,1069.00
2023-12-29T10:58:31.833Z,1073.00
2023-12-29T10:59:31.824Z,1078.00
2023-12-29T11:00:31.838Z,1095.00
2023-12-29T11:01:31.883Z,1090.00
2023-12-29T11:02:31.841Z,1091.00
2023-12-29T11:03:31.784Z,1086.00
2023-12-29T11:04:31.786Z,1100.00
2023-12-29T11:05:31.861Z,1086.00
2023-12-29T11:06:31.761Z,1080.00
2023-12-29T11:07:31.737Z,1090.00
2023-12-29T11:08:31.827Z,1086.00
2023-12-29T11:09:31.723Z,1085.00
2023-12-29T11:10:31.830Z,1077.00
2023-12-29T11:11:31.702Z,1072.00
2023-12-29T11:12:31.714Z,1078.00
2023-12-29T11:13:31.771Z,1076.00
2023-12-29T11:14:31.721Z,1069.00
2023-12-29T11:15:31.682Z,1067.00
2023-12-29T11:16:31.671Z,1070.00
2023-12-29T11:17:31.680Z,1076.00
2023-12-29T11:18:33.183Z,1072.00
2023-12-29T11:19:31.695Z,1081.00
2023-12-29T11:20:31.622Z,1078.00
2023-12-29T11:21:31.607Z,1080.00
2023-12-29T11:22:31.601Z,1076.00
2023-12-29T11:23:31.601Z,1088.00
2023-12-29T11:25:31.652Z,1086.00
2023-12-29T11:26:31.572Z,1076.00
2023-12-29T11:27:31.555Z,1090.00
2023-12-29T11:28:41.607Z,1085.00
2023-12-29T11:29:31.541Z,1086.00
2023-12-29T11:30:31.543Z,1087.00
2023-12-29T11:31:31.681Z,1088.00
2023-12-29T11:32:31.508Z,1086.00
2023-12-29T11:33:31.537Z,1091.00
2023-12-29T11:34:31.576Z,1091.00
2023-12-29T11:35:32.555Z,1086.00
2023-12-29T11:36:34.037Z,1090.00
2023-12-29T11:37:31.541Z,1094.00
2023-12-29T11:38:31.458Z,1090.00
2023-12-29T11:39:31.445Z,1088.00
2023-12-29T11:40:31.524Z,1087.00
2023-12-29T11:41:31.416Z,1087.00
2023-12-29T11:42:31.420Z,1076.00
2023-12-29T11:43:31.464Z,1078.00
2023-12-29T11:44:31.518Z,1088.00
2023-12-29T11:45:31.371Z,1076.00
2023-12-29T11:46:31.378Z,1082.00
2023-12-29T11:47:31.407Z,1081.00
2023-12-29T11:48:31.376Z,1080.00
2023-12-29T11:49:31.392Z,1075.00
2023-12-29T11:50:31.336Z,1075.00
2023-12-29T11:51:31.328Z,1075.00
2023-12-29T11:52:31.342Z,1075.00
2023-12-29T11:53:31.311Z,1080.00
2023-12-29T11:54:31.388Z,1072.00
2023-12-29T11:55:31.339Z,1073.00
2023-12-29T11:56:31.278Z,1078.00
2023-12-29T11:57:31.273Z,1073.00
2023-12-29T11:58:31.281Z,1071.00
2023-12-29T11:59:31.254Z,1073.00
2023-12-29T12:00:31.240Z,1071.00
2023-12-29T12:01:31.314Z,1066.00
2023-12-29T12:02:31.276Z,1066.00
2023-12-29T12:03:31.324Z,1066.00
2023-12-29T12:04:32.351Z,1071.00
2023-12-29T12:05:31.212Z,1075.00
2023-12-29T12:06:31.194Z,1069.00
2023-12-29T12:07:31.202Z,1067.00